Kinsley, Kansas
Current Conditions -  °F | °C
As of 9:52 AM on Thursday 29 Jan 2015 (Local Time) from KDDC Reporting Station
Clear Clear  
Wind Chill: -1°   Ceiling: Unl
Heat Index:   Visibility: 10mi
Dew Point: -3°   Wind: 20mph
Humidity: 62%   Direction: 350°N
Pressure: 30.48"   Gusts: NA
Location:  37.92°N, 99.41°W
Report Text: KDDC 291552Z AUTO 35017KT 10SM CLR 04/M03 A3048 RMK AO2 PK WND 35026/1534 SLP326 T00391028
Loading
Personal Weather Stations






























Interactive Weather Map New forecast layout! Learn more

10-Day Weather Forecast

Advertisements
Track Severe Weather on mobile